sensor_id;sensor_type;location;lat;lon;timestamp;P1;durP1;ratioP1;P2;durP2;ratioP2
982;SDS011;480;48.124;11.578;2022-09-01T00:02:14;27.33;;;19.70;;
982;SDS011;480;48.124;11.578;2022-09-01T00:04:42;22.40;;;18.00;;
982;SDS011;480;48.124;11.578;2022-09-01T00:07:11;22.17;;;17.93;;
982;SDS011;480;48.124;11.578;2022-09-01T00:09:39;23.37;;;17.27;;
982;SDS011;480;48.124;11.578;2022-09-01T00:12:08;23.53;;;17.63;;
982;SDS011;480;48.124;11.578;2022-09-01T00:14:36;23.80;;;17.60;;
982;SDS011;480;48.124;11.578;2022-09-01T00:17:07;23.47;;;18.70;;
982;SDS011;480;48.124;11.578;2022-09-01T00:19:35;22.17;;;19.10;;
982;SDS011;480;48.124;11.578;2022-09-01T00:22:04;23.90;;;18.90;;
982;SDS011;480;48.124;11.578;2022-09-01T00:24:32;24.47;;;19.07;;
982;SDS011;480;48.124;11.578;2022-09-01T00:26:59;26.43;;;19.00;;
982;SDS011;480;48.124;11.578;2022-09-01T00:29:27;24.13;;;19.27;;
982;SDS011;480;48.124;11.578;2022-09-01T00:31:55;25.67;;;18.73;;
982;SDS011;480;48.124;11.578;2022-09-01T00:34:22;30.07;;;18.40;;
982;SDS011;480;48.124;11.578;2022-09-01T00:36:50;23.37;;;19.20;;
982;SDS011;480;48.124;11.578;2022-09-01T00:39:17;28.37;;;20.13;;
982;SDS011;480;48.124;11.578;2022-09-01T00:41:44;28.60;;;21.20;;
982;SDS011;480;48.124;11.578;2022-09-01T00:44:13;29.13;;;21.80;;
982;SDS011;480;48.124;11.578;2022-09-01T00:46:45;26.70;;;18.87;;
982;SDS011;480;48.124;11.578;2022-09-01T00:49:15;30.57;;;22.07;;
982;SDS011;480;48.124;11.578;2022-09-01T00:51:45;26.40;;;19.30;;
982;SDS011;480;48.124;11.578;2022-09-01T00:54:17;32.37;;;21.03;;
982;SDS011;480;48.124;11.578;2022-09-01T00:56:47;28.60;;;19.37;;
982;SDS011;480;48.124;11.578;2022-09-01T00:59:16;28.53;;;20.60;;
982;SDS011;480;48.124;11.578;2022-09-01T01:01:47;30.77;;;20.13;;
982;SDS011;480;48.124;11.578;2022-09-01T01:04:14;24.40;;;18.37;;
982;SDS011;480;48.124;11.578;2022-09-01T01:06:42;33.70;;;20.30;;
982;SDS011;480;48.124;11.578;2022-09-01T01:09:14;28.50;;;18.97;;
982;SDS011;480;48.124;11.578;2022-09-01T01:11:42;28.20;;;21.40;;
982;SDS011;480;48.124;11.578;2022-09-01T01:14:12;23.23;;;17.23;;
982;SDS011;480;48.124;11.578;2022-09-01T01:16:42;27.90;;;18.77;;
982;SDS011;480;48.124;11.578;2022-09-01T01:19:14;28.40;;;19.40;;
982;SDS011;480;48.124;11.578;2022-09-01T01:22:03;26.33;;;19.10;;
982;SDS011;480;48.124;11.578;2022-09-01T01:24:52;28.30;;;21.70;;
982;SDS011;480;48.124;11.578;2022-09-01T01:27:21;31.70;;;21.13;;
982;SDS011;480;48.124;11.578;2022-09-01T01:29:48;25.50;;;19.93;;
982;SDS011;480;48.124;11.578;2022-09-01T01:32:17;27.53;;;19.60;;
982;SDS011;480;48.124;11.578;2022-09-01T01:34:45;27.00;;;18.83;;
982;SDS011;480;48.124;11.578;2022-09-01T01:37:12;25.23;;;17.97;;
982;SDS011;480;48.124;11.578;2022-09-01T01:39:40;22.13;;;17.37;;
982;SDS011;480;48.124;11.578;2022-09-01T01:42:10;26.13;;;20.60;;
982;SDS011;480;48.124;11.578;2022-09-01T01:44:37;27.77;;;19.00;;
982;SDS011;480;48.124;11.578;2022-09-01T01:47:07;27.90;;;18.87;;
982;SDS011;480;48.124;11.578;2022-09-01T01:49:37;27.07;;;18.90;;
982;SDS011;480;48.124;11.578;2022-09-01T01:52:07;26.50;;;20.73;;
982;SDS011;480;48.124;11.578;2022-09-01T01:54:37;24.90;;;19.93;;
982;SDS011;480;48.124;11.578;2022-09-01T01:57:05;29.73;;;19.50;;
982;SDS011;480;48.124;11.578;2022-09-01T01:59:34;26.47;;;20.70;;
982;SDS011;480;48.124;11.578;2022-09-01T02:02:04;26.80;;;20.10;;
982;SDS011;480;48.124;11.578;2022-09-01T02:04:33;24.87;;;18.60;;
982;SDS011;480;48.124;11.578;2022-09-01T02:07:04;25.20;;;19.43;;
982;SDS011;480;48.124;11.578;2022-09-01T02:09:34;26.43;;;17.30;;
982;SDS011;480;48.124;11.578;2022-09-01T02:12:02;26.43;;;18.57;;
982;SDS011;480;48.124;11.578;2022-09-01T02:14:31;25.60;;;18.77;;
982;SDS011;480;48.124;11.578;2022-09-01T02:17:00;20.57;;;17.70;;
982;SDS011;480;48.124;11.578;2022-09-01T02:19:27;23.03;;;19.43;;
982;SDS011;480;48.124;11.578;2022-09-01T02:21:54;26.90;;;15.63;;
982;SDS011;480;48.124;11.578;2022-09-01T02:24:24;27.13;;;19.00;;
982;SDS011;480;48.124;11.578;2022-09-01T02:26:55;24.77;;;18.03;;
982;SDS011;480;48.124;11.578;2022-09-01T02:29:24;27.77;;;18.97;;
982;SDS011;480;48.124;11.578;2022-09-01T02:31:53;26.47;;;17.27;;
982;SDS011;480;48.124;11.578;2022-09-01T02:34:23;21.50;;;17.33;;
982;SDS011;480;48.124;11.578;2022-09-01T02:36:53;23.97;;;17.00;;
982;SDS011;480;48.124;11.578;2022-09-01T02:39:22;22.97;;;18.10;;
982;SDS011;480;48.124;11.578;2022-09-01T02:41:52;19.63;;;17.57;;
982;SDS011;480;48.124;11.578;2022-09-01T02:44:20;25.93;;;17.83;;
982;SDS011;480;48.124;11.578;2022-09-01T02:46:47;21.47;;;15.33;;
982;SDS011;480;48.124;11.578;2022-09-01T02:49:16;22.70;;;18.00;;
982;SDS011;480;48.124;11.578;2022-09-01T02:51:51;20.87;;;16.00;;
982;SDS011;480;48.124;11.578;2022-09-01T02:54:22;21.40;;;17.07;;
982;SDS011;480;48.124;11.578;2022-09-01T02:56:51;26.77;;;17.43;;
982;SDS011;480;48.124;11.578;2022-09-01T02:59:19;22.20;;;17.77;;
982;SDS011;480;48.124;11.578;2022-09-01T03:01:48;17.27;;;14.40;;
982;SDS011;480;48.124;11.578;2022-09-01T03:04:18;22.67;;;17.53;;
982;SDS011;480;48.124;11.578;2022-09-01T03:06:46;25.63;;;17.83;;
982;SDS011;480;48.124;11.578;2022-09-01T03:09:15;23.63;;;16.87;;
982;SDS011;480;48.124;11.578;2022-09-01T03:11:44;23.40;;;17.57;;
982;SDS011;480;48.124;11.578;2022-09-01T03:14:12;24.20;;;18.20;;
982;SDS011;480;48.124;11.578;2022-09-01T03:16:40;30.67;;;17.17;;
982;SDS011;480;48.124;11.578;2022-09-01T03:19:07;20.27;;;15.80;;
982;SDS011;480;48.124;11.578;2022-09-01T03:21:36;19.63;;;16.07;;
982;SDS011;480;48.124;11.578;2022-09-01T03:24:05;26.37;;;17.90;;
982;SDS011;480;48.124;11.578;2022-09-01T03:26:35;20.60;;;16.40;;
982;SDS011;480;48.124;11.578;2022-09-01T03:29:02;21.67;;;15.90;;
982;SDS011;480;48.124;11.578;2022-09-01T03:31:30;20.53;;;16.23;;
982;SDS011;480;48.124;11.578;2022-09-01T03:33:57;17.40;;;14.37;;
982;SDS011;480;48.124;11.578;2022-09-01T03:36:28;22.00;;;16.10;;
982;SDS011;480;48.124;11.578;2022-09-01T03:38:57;21.20;;;16.80;;
982;SDS011;480;48.124;11.578;2022-09-01T03:41:25;19.57;;;16.33;;
982;SDS011;480;48.124;11.578;2022-09-01T03:43:56;20.70;;;14.97;;
982;SDS011;480;48.124;11.578;2022-09-01T03:46:24;18.07;;;14.60;;
982;SDS011;480;48.124;11.578;2022-09-01T03:48:54;20.73;;;15.27;;
982;SDS011;480;48.124;11.578;2022-09-01T03:51:26;17.03;;;14.97;;
982;SDS011;480;48.124;11.578;2022-09-01T03:53:55;18.67;;;14.33;;
982;SDS011;480;48.124;11.578;2022-09-01T03:56:23;18.57;;;15.47;;
982;SDS011;480;48.124;11.578;2022-09-01T03:58:51;20.30;;;16.43;;
982;SDS011;480;48.124;11.578;2022-09-01T04:01:21;18.37;;;14.87;;
982;SDS011;480;48.124;11.578;2022-09-01T04:03:48;19.67;;;15.00;;
982;SDS011;480;48.124;11.578;2022-09-01T04:06:16;16.23;;;13.33;;
982;SDS011;480;48.124;11.578;2022-09-01T04:08:43;19.00;;;14.73;;
982;SDS011;480;48.124;11.578;2022-09-01T04:11:12;17.37;;;14.80;;
982;SDS011;480;48.124;11.578;2022-09-01T04:13:42;22.73;;;15.97;;
982;SDS011;480;48.124;11.578;2022-09-01T04:16:18;19.50;;;16.23;;
982;SDS011;480;48.124;11.578;2022-09-01T04:19:06;21.67;;;17.07;;
982;SDS011;480;48.124;11.578;2022-09-01T04:21:44;19.53;;;16.57;;
982;SDS011;480;48.124;11.578;2022-09-01T04:24:11;20.77;;;16.73;;
982;SDS011;480;48.124;11.578;2022-09-01T04:26:39;20.77;;;14.80;;
982;SDS011;480;48.124;11.578;2022-09-01T04:29:07;18.13;;;14.33;;
982;SDS011;480;48.124;11.578;2022-09-01T04:31:37;17.00;;;14.10;;
982;SDS011;480;48.124;11.578;2022-09-01T04:34:06;18.93;;;14.70;;
982;SDS011;480;48.124;11.578;2022-09-01T04:36:37;22.20;;;15.73;;
982;SDS011;480;48.124;11.578;2022-09-01T04:39:06;21.67;;;17.10;;
982;SDS011;480;48.124;11.578;2022-09-01T04:41:38;25.83;;;18.93;;
982;SDS011;480;48.124;11.578;2022-09-01T04:44:06;25.90;;;17.30;;
982;SDS011;480;48.124;11.578;2022-09-01T04:46:35;22.33;;;17.10;;
982;SDS011;480;48.124;11.578;2022-09-01T04:49:06;19.20;;;16.43;;
982;SDS011;480;48.124;11.578;2022-09-01T04:51:36;24.17;;;18.40;;
982;SDS011;480;48.124;11.578;2022-09-01T04:54:04;22.27;;;17.50;;
982;SDS011;480;48.124;11.578;2022-09-01T04:56:38;28.47;;;19.67;;
982;SDS011;480;48.124;11.578;2022-09-01T04:59:07;24.90;;;17.97;;
982;SDS011;480;48.124;11.578;2022-09-01T05:01:35;23.30;;;18.07;;
982;SDS011;480;48.124;11.578;2022-09-01T05:04:09;25.23;;;17.77;;
982;SDS011;480;48.124;11.578;2022-09-01T05:06:38;25.10;;;18.97;;
982;SDS011;480;48.124;11.578;2022-09-01T05:09:07;26.97;;;18.77;;
982;SDS011;480;48.124;11.578;2022-09-01T05:11:35;25.80;;;18.50;;
982;SDS011;480;48.124;11.578;2022-09-01T05:14:03;24.30;;;18.60;;
982;SDS011;480;48.124;11.578;2022-09-01T05:16:31;24.70;;;19.33;;
982;SDS011;480;48.124;11.578;2022-09-01T05:19:00;26.57;;;18.90;;
982;SDS011;480;48.124;11.578;2022-09-01T05:21:28;31.17;;;20.20;;
982;SDS011;480;48.124;11.578;2022-09-01T05:23:57;27.73;;;21.07;;
982;SDS011;480;48.124;11.578;2022-09-01T05:26:26;31.13;;;18.47;;
982;SDS011;480;48.124;11.578;2022-09-01T05:28:56;29.50;;;19.67;;
982;SDS011;480;48.124;11.578;2022-09-01T05:31:25;27.03;;;19.77;;
982;SDS011;480;48.124;11.578;2022-09-01T05:33:59;25.20;;;17.90;;
982;SDS011;480;48.124;11.578;2022-09-01T05:36:29;26.23;;;18.30;;
982;SDS011;480;48.124;11.578;2022-09-01T05:38:57;26.50;;;20.90;;
982;SDS011;480;48.124;11.578;2022-09-01T05:41:26;23.60;;;18.40;;
982;SDS011;480;48.124;11.578;2022-09-01T05:43:53;26.97;;;20.17;;
982;SDS011;480;48.124;11.578;2022-09-01T05:46:23;26.97;;;19.97;;
982;SDS011;480;48.124;11.578;2022-09-01T05:48:53;25.10;;;16.60;;
982;SDS011;480;48.124;11.578;2022-09-01T05:51:21;27.73;;;18.37;;
982;SDS011;480;48.124;11.578;2022-09-01T05:53:52;20.20;;;14.33;;
982;SDS011;480;48.124;11.578;2022-09-01T05:56:23;21.60;;;17.53;;
982;SDS011;480;48.124;11.578;2022-09-01T05:58:52;22.80;;;19.00;;
982;SDS011;480;48.124;11.578;2022-09-01T06:01:23;20.03;;;15.90;;
982;SDS011;480;48.124;11.578;2022-09-01T06:03:52;17.90;;;14.60;;
982;SDS011;480;48.124;11.578;2022-09-01T06:06:22;21.87;;;14.30;;
982;SDS011;480;48.124;11.578;2022-09-01T06:08:52;22.03;;;15.50;;
982;SDS011;480;48.124;11.578;2022-09-01T06:11:23;17.77;;;14.70;;
982;SDS011;480;48.124;11.578;2022-09-01T06:13:50;20.83;;;13.97;;
982;SDS011;480;48.124;11.578;2022-09-01T06:16:21;25.47;;;18.10;;
982;SDS011;480;48.124;11.578;2022-09-01T06:18:48;24.37;;;15.40;;
982;SDS011;480;48.124;11.578;2022-09-01T06:21:17;19.00;;;15.23;;
982;SDS011;480;48.124;11.578;2022-09-01T06:23:46;22.03;;;15.80;;
982;SDS011;480;48.124;11.578;2022-09-01T06:26:17;20.97;;;15.67;;
982;SDS011;480;48.124;11.578;2022-09-01T06:28:45;20.87;;;17.43;;
982;SDS011;480;48.124;11.578;2022-09-01T06:31:13;17.97;;;14.13;;
982;SDS011;480;48.124;11.578;2022-09-01T06:33:41;20.00;;;14.57;;
982;SDS011;480;48.124;11.578;2022-09-01T06:36:08;16.63;;;13.87;;
982;SDS011;480;48.124;11.578;2022-09-01T06:38:35;17.70;;;15.27;;
982;SDS011;480;48.124;11.578;2022-09-01T06:41:04;17.87;;;14.40;;
982;SDS011;480;48.124;11.578;2022-09-01T06:43:38;20.47;;;13.50;;
982;SDS011;480;48.124;11.578;2022-09-01T06:46:06;18.20;;;13.97;;
982;SDS011;480;48.124;11.578;2022-09-01T06:48:34;23.97;;;16.70;;
982;SDS011;480;48.124;11.578;2022-09-01T06:51:04;17.33;;;13.13;;
982;SDS011;480;48.124;11.578;2022-09-01T06:53:33;17.77;;;11.90;;
982;SDS011;480;48.124;11.578;2022-09-01T06:56:01;18.47;;;14.53;;
982;SDS011;480;48.124;11.578;2022-09-01T06:58:28;15.27;;;13.67;;
982;SDS011;480;48.124;11.578;2022-09-01T07:00:57;13.47;;;11.30;;
982;SDS011;480;48.124;11.578;2022-09-01T07:03:25;13.83;;;11.63;;
982;SDS011;480;48.124;11.578;2022-09-01T07:05:52;13.77;;;12.33;;
982;SDS011;480;48.124;11.578;2022-09-01T07:08:20;20.50;;;14.40;;
982;SDS011;480;48.124;11.578;2022-09-01T07:10:49;15.20;;;13.40;;
982;SDS011;480;48.124;11.578;2022-09-01T07:13:19;16.40;;;13.17;;
982;SDS011;480;48.124;11.578;2022-09-01T07:15:49;14.00;;;12.07;;
982;SDS011;480;48.124;11.578;2022-09-01T07:18:21;14.80;;;13.30;;
982;SDS011;480;48.124;11.578;2022-09-01T07:20:50;14.43;;;12.20;;
982;SDS011;480;48.124;11.578;2022-09-01T07:23:18;15.40;;;12.70;;
982;SDS011;480;48.124;11.578;2022-09-01T07:25:48;15.50;;;12.60;;
982;SDS011;480;48.124;11.578;2022-09-01T07:28:19;12.60;;;11.30;;
982;SDS011;480;48.124;11.578;2022-09-01T07:30:49;13.33;;;11.47;;
982;SDS011;480;48.124;11.578;2022-09-01T07:33:21;16.50;;;11.90;;
982;SDS011;480;48.124;11.578;2022-09-01T07:35:49;15.40;;;12.60;;
982;SDS011;480;48.124;11.578;2022-09-01T07:38:19;13.40;;;12.00;;
982;SDS011;480;48.124;11.578;2022-09-01T07:40:46;12.43;;;11.13;;
982;SDS011;480;48.124;11.578;2022-09-01T07:43:14;14.10;;;11.37;;
982;SDS011;480;48.124;11.578;2022-09-01T07:45:46;14.20;;;11.17;;
982;SDS011;480;48.124;11.578;2022-09-01T07:48:15;11.30;;;8.97;;
982;SDS011;480;48.124;11.578;2022-09-01T07:50:46;11.70;;;10.50;;
982;SDS011;480;48.124;11.578;2022-09-01T07:53:17;13.07;;;10.43;;
982;SDS011;480;48.124;11.578;2022-09-01T07:55:49;14.27;;;12.97;;
982;SDS011;480;48.124;11.578;2022-09-01T07:58:19;13.90;;;10.70;;
982;SDS011;480;48.124;11.578;2022-09-01T08:00:48;11.70;;;9.80;;
982;SDS011;480;48.124;11.578;2022-09-01T08:03:23;12.17;;;10.83;;
982;SDS011;480;48.124;11.578;2022-09-01T08:06:15;10.90;;;9.90;;
982;SDS011;480;48.124;11.578;2022-09-01T08:08:46;11.80;;;10.63;;
982;SDS011;480;48.124;11.578;2022-09-01T08:11:33;10.40;;;9.30;;
982;SDS011;480;48.124;11.578;2022-09-01T08:16:39;10.37;;;9.47;;
982;SDS011;480;48.124;11.578;2022-09-01T08:19:37;10.67;;;9.60;;
982;SDS011;480;48.124;11.578;2022-09-01T08:22:09;13.10;;;10.40;;
982;SDS011;480;48.124;11.578;2022-09-01T08:24:36;11.53;;;10.40;;
982;SDS011;480;48.124;11.578;2022-09-01T08:27:04;10.90;;;9.80;;
982;SDS011;480;48.124;11.578;2022-09-01T08:29:36;10.23;;;9.30;;
982;SDS011;480;48.124;11.578;2022-09-01T08:34:55;10.57;;;9.57;;
982;SDS011;480;48.124;11.578;2022-09-01T08:40:05;11.30;;;10.10;;
982;SDS011;480;48.124;11.578;2022-09-01T08:45:03;10.33;;;9.33;;
982;SDS011;480;48.124;11.578;2022-09-01T08:47:38;10.20;;;8.77;;
982;SDS011;480;48.124;11.578;2022-09-01T08:50:11;10.03;;;8.73;;
982;SDS011;480;48.124;11.578;2022-09-01T08:52:46;9.37;;;8.53;;
982;SDS011;480;48.124;11.578;2022-09-01T08:57:50;10.50;;;8.37;;
982;SDS011;480;48.124;11.578;2022-09-01T09:03:16;8.60;;;7.83;;
982;SDS011;480;48.124;11.578;2022-09-01T09:08:37;8.13;;;7.30;;
982;SDS011;480;48.124;11.578;2022-09-01T09:16:26;9.13;;;8.27;;
982;SDS011;480;48.124;11.578;2022-09-01T09:18:59;7.90;;;6.77;;
982;SDS011;480;48.124;11.578;2022-09-01T09:21:50;12.10;;;8.40;;
982;SDS011;480;48.124;11.578;2022-09-01T09:27:00;8.70;;;7.80;;
982;SDS011;480;48.124;11.578;2022-09-01T09:29:29;10.33;;;9.20;;
982;SDS011;480;48.124;11.578;2022-09-01T09:32:06;9.03;;;8.13;;
982;SDS011;480;48.124;11.578;2022-09-01T09:34:35;7.87;;;7.27;;
982;SDS011;480;48.124;11.578;2022-09-01T09:42:59;9.90;;;9.00;;
982;SDS011;480;48.124;11.578;2022-09-01T09:48:00;9.53;;;8.60;;
982;SDS011;480;48.124;11.578;2022-09-01T09:53:16;8.73;;;8.03;;
982;SDS011;480;48.124;11.578;2022-09-01T10:01:44;8.30;;;7.50;;
982;SDS011;480;48.124;11.578;2022-09-01T10:07:25;8.57;;;7.77;;
982;SDS011;480;48.124;11.578;2022-09-01T10:09:57;11.90;;;10.80;;
982;SDS011;480;48.124;11.578;2022-09-01T10:14:59;6.93;;;6.33;;
982;SDS011;480;48.124;11.578;2022-09-01T10:17:44;7.90;;;7.13;;
982;SDS011;480;48.124;11.578;2022-09-01T10:25:22;7.90;;;6.60;;
982;SDS011;480;48.124;11.578;2022-09-01T10:33:49;7.83;;;6.30;;
982;SDS011;480;48.124;11.578;2022-09-01T10:36:32;5.27;;;4.87;;
982;SDS011;480;48.124;11.578;2022-09-01T10:41:46;5.70;;;5.20;;
982;SDS011;480;48.124;11.578;2022-09-01T10:47:39;5.10;;;4.70;;
982;SDS011;480;48.124;11.578;2022-09-01T10:50:30;6.80;;;5.60;;
982;SDS011;480;48.124;11.578;2022-09-01T11:57:27;3.60;;;3.30;;
982;SDS011;480;48.124;11.578;2022-09-01T12:00:15;3.40;;;3.10;;
982;SDS011;480;48.124;11.578;2022-09-01T12:03:23;3.20;;;3.00;;
982;SDS011;480;48.124;11.578;2022-09-01T12:06:21;4.03;;;3.40;;
982;SDS011;480;48.124;11.578;2022-09-01T12:08:52;3.63;;;3.37;;
982;SDS011;480;48.124;11.578;2022-09-01T12:11:24;2.97;;;2.77;;
982;SDS011;480;48.124;11.578;2022-09-01T12:13:58;3.03;;;2.83;;
982;SDS011;480;48.124;11.578;2022-09-01T12:16:27;3.43;;;3.13;;
982;SDS011;480;48.124;11.578;2022-09-01T12:18:57;3.40;;;3.10;;
982;SDS011;480;48.124;11.578;2022-09-01T12:21:27;3.37;;;3.07;;
982;SDS011;480;48.124;11.578;2022-09-01T12:24:08;4.20;;;3.10;;
982;SDS011;480;48.124;11.578;2022-09-01T12:26:43;4.33;;;3.93;;
982;SDS011;480;48.124;11.578;2022-09-01T12:29:25;3.80;;;3.50;;
982;SDS011;480;48.124;11.578;2022-09-01T12:31:56;4.13;;;3.40;;
982;SDS011;480;48.124;11.578;2022-09-01T12:34:26;3.00;;;2.80;;
982;SDS011;480;48.124;11.578;2022-09-01T12:37:20;3.70;;;3.40;;
982;SDS011;480;48.124;11.578;2022-09-01T12:39:55;2.90;;;2.70;;
982;SDS011;480;48.124;11.578;2022-09-01T12:42:27;3.33;;;3.13;;
982;SDS011;480;48.124;11.578;2022-09-01T12:44:56;3.50;;;3.20;;
982;SDS011;480;48.124;11.578;2022-09-01T12:47:46;3.93;;;3.63;;
982;SDS011;480;48.124;11.578;2022-09-01T12:53:14;4.13;;;3.80;;
982;SDS011;480;48.124;11.578;2022-09-01T12:56:04;4.00;;;3.23;;
982;SDS011;480;48.124;11.578;2022-09-01T13:06:48;3.40;;;3.20;;
982;SDS011;480;48.124;11.578;2022-09-01T13:09:16;3.43;;;3.07;;
982;SDS011;480;48.124;11.578;2022-09-01T13:11:45;3.57;;;3.30;;
982;SDS011;480;48.124;11.578;2022-09-01T13:14:13;3.03;;;2.87;;
982;SDS011;480;48.124;11.578;2022-09-01T13:16:41;5.50;;;3.90;;
982;SDS011;480;48.124;11.578;2022-09-01T13:19:08;4.37;;;4.00;;
982;SDS011;480;48.124;11.578;2022-09-01T13:21:35;3.90;;;3.60;;
982;SDS011;480;48.124;11.578;2022-09-01T13:24:05;4.63;;;4.33;;
982;SDS011;480;48.124;11.578;2022-09-01T13:26:33;3.70;;;3.10;;
982;SDS011;480;48.124;11.578;2022-09-01T13:29:18;3.23;;;2.97;;
982;SDS011;480;48.124;11.578;2022-09-01T13:31:45;3.60;;;3.10;;
982;SDS011;480;48.124;11.578;2022-09-01T13:34:13;3.20;;;3.00;;
982;SDS011;480;48.124;11.578;2022-09-01T13:36:40;3.40;;;3.10;;
982;SDS011;480;48.124;11.578;2022-09-01T13:39:09;2.60;;;2.50;;
982;SDS011;480;48.124;11.578;2022-09-01T13:41:36;4.27;;;3.87;;
982;SDS011;480;48.124;11.578;2022-09-01T13:49:07;3.20;;;3.00;;
982;SDS011;480;48.124;11.578;2022-09-01T13:51:40;2.37;;;2.27;;
982;SDS011;480;48.124;11.578;2022-09-01T13:54:07;2.70;;;2.60;;
982;SDS011;480;48.124;11.578;2022-09-01T13:56:37;3.90;;;3.07;;
982;SDS011;480;48.124;11.578;2022-09-01T13:59:04;2.40;;;2.30;;
982;SDS011;480;48.124;11.578;2022-09-01T14:01:32;3.30;;;3.00;;
982;SDS011;480;48.124;11.578;2022-09-01T14:04:03;3.00;;;2.80;;
982;SDS011;480;48.124;11.578;2022-09-01T14:06:31;3.10;;;2.90;;
982;SDS011;480;48.124;11.578;2022-09-01T14:09:09;3.50;;;2.70;;
982;SDS011;480;48.124;11.578;2022-09-01T14:11:37;2.30;;;2.10;;
982;SDS011;480;48.124;11.578;2022-09-01T14:14:04;3.13;;;2.93;;
982;SDS011;480;48.124;11.578;2022-09-01T14:16:32;2.90;;;2.70;;
982;SDS011;480;48.124;11.578;2022-09-01T14:19:01;3.30;;;2.90;;
982;SDS011;480;48.124;11.578;2022-09-01T14:24:06;3.10;;;2.90;;
982;SDS011;480;48.124;11.578;2022-09-01T14:26:35;3.23;;;2.90;;
982;SDS011;480;48.124;11.578;2022-09-01T14:29:06;8.23;;;2.50;;
982;SDS011;480;48.124;11.578;2022-09-01T14:31:33;3.00;;;2.80;;
982;SDS011;480;48.124;11.578;2022-09-01T14:34:02;3.23;;;2.93;;
982;SDS011;480;48.124;11.578;2022-09-01T14:36:29;2.93;;;2.67;;
982;SDS011;480;48.124;11.578;2022-09-01T14:38:56;3.40;;;3.20;;
982;SDS011;480;48.124;11.578;2022-09-01T14:41:24;3.73;;;2.90;;
982;SDS011;480;48.124;11.578;2022-09-01T14:44:01;3.67;;;3.47;;
982;SDS011;480;48.124;11.578;2022-09-01T14:46:29;2.53;;;2.37;;
982;SDS011;480;48.124;11.578;2022-09-01T14:49:00;3.90;;;3.60;;
982;SDS011;480;48.124;11.578;2022-09-01T14:51:28;3.00;;;2.80;;
982;SDS011;480;48.124;11.578;2022-09-01T14:53:57;2.70;;;2.20;;
982;SDS011;480;48.124;11.578;2022-09-01T14:56:24;2.50;;;2.30;;
982;SDS011;480;48.124;11.578;2022-09-01T14:58:53;2.63;;;2.43;;
982;SDS011;480;48.124;11.578;2022-09-01T15:01:24;2.57;;;2.37;;
982;SDS011;480;48.124;11.578;2022-09-01T15:03:56;2.90;;;1.83;;
982;SDS011;480;48.124;11.578;2022-09-01T15:06:29;1.93;;;1.80;;
982;SDS011;480;48.124;11.578;2022-09-01T15:09:02;2.93;;;2.40;;
982;SDS011;480;48.124;11.578;2022-09-01T15:11:33;2.63;;;1.63;;
982;SDS011;480;48.124;11.578;2022-09-01T15:14:03;2.03;;;1.80;;
982;SDS011;480;48.124;11.578;2022-09-01T15:16:45;1.77;;;1.67;;
982;SDS011;480;48.124;11.578;2022-09-01T15:19:27;1.80;;;1.70;;
982;SDS011;480;48.124;11.578;2022-09-01T15:22:03;2.20;;;2.10;;
982;SDS011;480;48.124;11.578;2022-09-01T15:24:34;2.43;;;2.10;;
982;SDS011;480;48.124;11.578;2022-09-01T15:27:02;2.23;;;2.03;;
982;SDS011;480;48.124;11.578;2022-09-01T15:29:38;2.50;;;2.30;;
982;SDS011;480;48.124;11.578;2022-09-01T15:32:10;2.70;;;2.60;;
982;SDS011;480;48.124;11.578;2022-09-01T15:34:37;3.97;;;2.30;;
982;SDS011;480;48.124;11.578;2022-09-01T15:37:07;2.60;;;2.40;;
982;SDS011;480;48.124;11.578;2022-09-01T15:39:52;2.50;;;2.30;;
982;SDS011;480;48.124;11.578;2022-09-01T15:42:23;2.20;;;2.00;;
982;SDS011;480;48.124;11.578;2022-09-01T15:44:52;2.77;;;2.57;;
982;SDS011;480;48.124;11.578;2022-09-01T15:47:20;2.77;;;2.57;;
982;SDS011;480;48.124;11.578;2022-09-01T15:49:47;2.33;;;2.23;;
982;SDS011;480;48.124;11.578;2022-09-01T15:52:17;2.70;;;2.27;;
982;SDS011;480;48.124;11.578;2022-09-01T15:54:45;2.30;;;2.10;;
982;SDS011;480;48.124;11.578;2022-09-01T15:57:16;2.33;;;2.13;;
982;SDS011;480;48.124;11.578;2022-09-01T15:59:45;12.73;;;2.77;;
982;SDS011;480;48.124;11.578;2022-09-01T16:02:29;3.90;;;2.40;;
982;SDS011;480;48.124;11.578;2022-09-01T16:04:56;2.50;;;2.30;;
982;SDS011;480;48.124;11.578;2022-09-01T16:07:23;2.30;;;2.10;;
982;SDS011;480;48.124;11.578;2022-09-01T16:09:50;2.40;;;2.20;;
982;SDS011;480;48.124;11.578;2022-09-01T16:12:22;2.50;;;2.40;;
982;SDS011;480;48.124;11.578;2022-09-01T16:15:00;1.70;;;1.60;;
982;SDS011;480;48.124;11.578;2022-09-01T16:17:34;1.97;;;1.87;;
982;SDS011;480;48.124;11.578;2022-09-01T16:20:20;2.40;;;2.20;;
982;SDS011;480;48.124;11.578;2022-09-01T16:22:51;2.30;;;2.20;;
982;SDS011;480;48.124;11.578;2022-09-01T16:25:24;1.83;;;1.70;;
982;SDS011;480;48.124;11.578;2022-09-01T16:27:55;2.17;;;1.90;;
982;SDS011;480;48.124;11.578;2022-09-01T16:30:27;3.30;;;2.30;;
982;SDS011;480;48.124;11.578;2022-09-01T16:33:06;2.37;;;2.17;;
982;SDS011;480;48.124;11.578;2022-09-01T16:35:46;2.00;;;1.80;;
982;SDS011;480;48.124;11.578;2022-09-01T16:38:36;2.03;;;1.93;;
982;SDS011;480;48.124;11.578;2022-09-01T16:41:24;2.30;;;1.83;;
982;SDS011;480;48.124;11.578;2022-09-01T16:44:12;2.17;;;1.90;;
982;SDS011;480;48.124;11.578;2022-09-01T16:46:51;2.33;;;2.13;;
982;SDS011;480;48.124;11.578;2022-09-01T16:49:27;2.63;;;2.07;;
982;SDS011;480;48.124;11.578;2022-09-01T16:52:00;2.40;;;2.20;;
982;SDS011;480;48.124;11.578;2022-09-01T16:54:39;1.80;;;1.70;;
982;SDS011;480;48.124;11.578;2022-09-01T16:57:18;1.90;;;1.80;;
982;SDS011;480;48.124;11.578;2022-09-01T16:59:51;2.13;;;2.03;;
982;SDS011;480;48.124;11.578;2022-09-01T17:02:30;1.40;;;1.30;;
982;SDS011;480;48.124;11.578;2022-09-01T17:05:13;1.57;;;1.47;;
982;SDS011;480;48.124;11.578;2022-09-01T17:07:48;2.50;;;2.20;;
982;SDS011;480;48.124;11.578;2022-09-01T17:10:21;2.60;;;2.27;;
982;SDS011;480;48.124;11.578;2022-09-01T17:13:05;1.80;;;1.70;;
982;SDS011;480;48.124;11.578;2022-09-01T17:15:42;1.60;;;1.50;;
982;SDS011;480;48.124;11.578;2022-09-01T17:18:15;2.60;;;2.40;;
982;SDS011;480;48.124;11.578;2022-09-01T17:20:48;3.30;;;2.60;;
982;SDS011;480;48.124;11.578;2022-09-01T17:23:21;2.27;;;2.10;;
982;SDS011;480;48.124;11.578;2022-09-01T17:25:53;2.73;;;2.33;;
982;SDS011;480;48.124;11.578;2022-09-01T17:28:26;3.80;;;2.03;;
982;SDS011;480;48.124;11.578;2022-09-01T17:31:00;2.87;;;2.03;;
982;SDS011;480;48.124;11.578;2022-09-01T17:33:34;2.63;;;2.10;;
982;SDS011;480;48.124;11.578;2022-09-01T17:36:17;2.83;;;2.07;;
982;SDS011;480;48.124;11.578;2022-09-01T17:38:52;2.43;;;2.27;;
982;SDS011;480;48.124;11.578;2022-09-01T17:41:27;1.77;;;1.63;;
982;SDS011;480;48.124;11.578;2022-09-01T17:44:03;2.00;;;1.90;;
982;SDS011;480;48.124;11.578;2022-09-01T17:46:43;2.90;;;1.87;;
982;SDS011;480;48.124;11.578;2022-09-01T17:49:18;2.90;;;2.47;;
982;SDS011;480;48.124;11.578;2022-09-01T17:52:10;3.40;;;2.27;;
982;SDS011;480;48.124;11.578;2022-09-01T17:54:44;2.07;;;1.87;;
982;SDS011;480;48.124;11.578;2022-09-01T17:57:24;1.93;;;1.73;;
982;SDS011;480;48.124;11.578;2022-09-01T17:59:58;2.27;;;1.90;;
982;SDS011;480;48.124;11.578;2022-09-01T18:02:36;2.30;;;2.20;;
982;SDS011;480;48.124;11.578;2022-09-01T18:05:33;2.27;;;2.17;;
982;SDS011;480;48.124;11.578;2022-09-01T18:10:55;2.10;;;2.00;;
982;SDS011;480;48.124;11.578;2022-09-01T18:13:27;2.60;;;2.40;;
982;SDS011;480;48.124;11.578;2022-09-01T18:16:05;2.40;;;2.20;;